Time;durP1;ratioP1;P1;durP2;ratioP2;P2;SDS_P1;SDS_P2;PMS_P1;PMS_P2;Temp;Humidity;BMP_temperature;BMP_pressure;BME280_temperature;BME280_humidity;BME280_pressure;Samples;Min_cycle;Max_cycle;Signal;HPM_P1;HPM_P2
2023/09/14 00:00:43;;;;;;;5.30;3.25;;;13.20;99.90;;;;;;5031717;28;20332;-71
2023/09/14 00:03:10;;;;;;;3.50;2.10;;;13.20;99.90;;;;;;5032665;28;20215;-74
2023/09/14 00:05:39;;;;;;;6.57;2.88;;;13.20;99.90;;;;;;5024987;28;20259;-73
2023/09/14 00:08:06;;;;;;;4.85;2.35;;;13.30;99.90;;;;;;5030505;28;20213;-71
2023/09/14 00:10:33;;;;;;;9.15;3.25;;;13.30;99.90;;;;;;5033339;28;20228;-71
2023/09/14 00:13:01;;;;;;;9.13;2.80;;;13.30;99.90;;;;;;5034055;28;20674;-73
2023/09/14 00:15:28;;;;;;;6.32;2.80;;;13.30;99.90;;;;;;5034144;28;20242;-72
2023/09/14 00:17:56;;;;;;;6.05;2.83;;;13.30;99.90;;;;;;5032252;28;20199;-74
2023/09/14 00:20:25;;;;;;;6.78;2.38;;;13.30;99.90;;;;;;5030188;28;20206;-72
2023/09/14 00:22:54;;;;;;;7.22;2.08;;;13.30;99.90;;;;;;5032948;28;20543;-69
2023/09/14 00:25:22;;;;;;;7.00;2.58;;;13.30;99.90;;;;;;5032206;28;20938;-74
2023/09/14 00:27:49;;;;;;;8.75;2.92;;;13.40;99.90;;;;;;5033946;28;20211;-75
2023/09/14 00:30:16;;;;;;;8.80;2.45;;;13.50;99.90;;;;;;5032283;28;20263;-72
2023/09/14 00:32:43;;;;;;;3.83;2.05;;;13.50;99.90;;;;;;5041002;28;20665;-74
2023/09/14 00:35:12;;;;;;;5.40;2.60;;;13.50;99.90;;;;;;5032855;28;20287;-74
2023/09/14 00:37:41;;;;;;;4.47;1.90;;;13.60;99.90;;;;;;5028570;28;20196;-74
2023/09/14 00:40:09;;;;;;;6.00;3.10;;;13.60;99.90;;;;;;5027852;28;20236;-70
2023/09/14 00:42:50;;;;;;;6.40;2.42;;;13.70;99.90;;;;;;5028475;28;20303;-69
2023/09/14 00:45:19;;;;;;;5.22;2.22;;;13.70;99.90;;;;;;5030412;28;20212;-71
2023/09/14 00:47:57;;;;;;;8.60;2.42;;;13.80;99.90;;;;;;5034362;28;20295;-71
2023/09/14 00:50:27;;;;;;;10.60;4.03;;;13.80;99.90;;;;;;5033948;28;20227;-72
2023/09/14 00:52:57;;;;;;;11.73;3.53;;;13.80;99.90;;;;;;5033329;28;20240;-72
2023/09/14 00:55:24;;;;;;;10.48;2.67;;;13.80;99.90;;;;;;5019858;28;20622;-71
2023/09/14 00:57:52;;;;;;;4.75;2.38;;;13.80;99.90;;;;;;5026360;28;20302;-72
2023/09/14 01:00:20;;;;;;;5.93;3.30;;;13.80;99.90;;;;;;5028556;28;20212;-70
2023/09/14 01:02:50;;;;;;;8.82;2.83;;;13.80;99.90;;;;;;5020936;28;20287;-70
2023/09/14 01:05:18;;;;;;;9.23;3.17;;;13.80;99.90;;;;;;5033686;28;20705;-74
2023/09/14 01:07:46;;;;;;;3.67;2.45;;;13.80;99.90;;;;;;5024518;28;20254;-70
2023/09/14 01:10:15;;;;;;;10.73;3.45;;;13.80;99.90;;;;;;5028658;28;20248;-70
2023/09/14 01:12:42;;;;;;;10.25;2.28;;;13.80;99.90;;;;;;5033060;28;20225;-74
2023/09/14 01:15:16;;;;;;;6.90;2.47;;;13.70;99.90;;;;;;5032904;28;20208;-72
2023/09/14 01:17:57;;;;;;;9.73;2.95;;;13.70;99.90;;;;;;5031672;28;20210;-72
2023/09/14 01:21:04;;;;;;;6.60;2.63;;;13.60;99.90;;;;;;5011597;28;20579;-69
2023/09/14 01:23:54;;;;;;;5.72;2.50;;;13.60;99.90;;;;;;4928949;29;20206;-69
2023/09/14 01:26:32;;;;;;;8.27;2.67;;;13.60;99.90;;;;;;4929339;29;20233;-72
2023/09/14 01:29:04;;;;;;;11.70;2.92;;;13.60;99.90;;;;;;4999150;28;20654;-72
2023/09/14 01:31:31;;;;;;;9.43;2.40;;;13.50;99.90;;;;;;5025223;28;20219;-72
2023/09/14 01:33:58;;;;;;;11.20;4.30;;;13.50;99.90;;;;;;5019670;28;20262;-73
2023/09/14 01:36:33;;;;;;;7.00;3.50;;;13.50;99.90;;;;;;5026018;28;20222;-71
2023/09/14 01:39:04;;;;;;;5.15;2.38;;;13.50;99.90;;;;;;5011733;28;20293;-71
2023/09/14 01:41:35;;;;;;;9.98;3.70;;;13.40;99.90;;;;;;5024955;28;20265;-70
2023/09/14 01:44:03;;;;;;;12.07;2.95;;;13.40;99.90;;;;;;5032824;28;20280;-70
2023/09/14 01:46:32;;;;;;;7.75;2.28;;;13.30;99.90;;;;;;5025080;28;20314;-73
2023/09/14 01:48:59;;;;;;;12.35;3.00;;;13.40;99.90;;;;;;5034834;28;20211;-69
2023/09/14 01:51:26;;;;;;;7.72;3.05;;;13.40;99.90;;;;;;5030157;28;20314;-69
2023/09/14 01:53:53;;;;;;;5.47;2.38;;;13.40;99.90;;;;;;5043807;28;20295;-69
2023/09/14 01:56:19;;;;;;;10.68;3.78;;;13.50;99.90;;;;;;5027322;28;20231;-71
2023/09/14 01:58:48;;;;;;;9.45;2.58;;;13.50;99.90;;;;;;5032611;28;20872;-72
2023/09/14 02:01:15;;;;;;;6.68;2.67;;;13.50;99.90;;;;;;5036871;28;20196;-69
2023/09/14 02:03:41;;;;;;;11.13;3.17;;;13.60;99.90;;;;;;5039504;28;20195;-71
2023/09/14 02:06:09;;;;;;;5.60;3.47;;;13.60;99.90;;;;;;5046741;28;20249;-72
2023/09/14 02:08:36;;;;;;;8.82;2.33;;;13.60;99.90;;;;;;5031871;28;20204;-70
2023/09/14 02:11:03;;;;;;;5.40;1.60;;;13.70;99.90;;;;;;5022494;28;20678;-73
2023/09/14 02:13:30;;;;;;;7.13;2.58;;;13.80;99.90;;;;;;5019660;28;20239;-71
2023/09/14 02:15:58;;;;;;;4.32;2.72;;;13.80;99.90;;;;;;5023736;28;20315;-73
2023/09/14 02:18:26;;;;;;;6.32;3.08;;;13.80;99.90;;;;;;5022109;28;20663;-71
2023/09/14 02:20:53;;;;;;;6.07;2.00;;;13.70;99.90;;;;;;5037534;28;20602;-72
2023/09/14 02:23:19;;;;;;;8.18;2.50;;;13.70;99.90;;;;;;5035137;28;20207;-71
2023/09/14 02:25:46;;;;;;;6.95;2.05;;;13.80;99.90;;;;;;5032212;28;20311;-73
2023/09/14 02:28:15;;;;;;;5.32;2.40;;;13.90;99.90;;;;;;5029201;28;20240;-70
2023/09/14 02:30:42;;;;;;;7.57;2.97;;;14.00;99.90;;;;;;5035852;28;20229;-70
2023/09/14 02:33:11;;;;;;;4.25;2.03;;;14.00;99.90;;;;;;5043864;28;20210;-73
2023/09/14 02:35:40;;;;;;;6.35;2.40;;;14.10;99.90;;;;;;5035679;28;20320;-71
2023/09/14 02:38:08;;;;;;;5.57;2.10;;;14.00;99.90;;;;;;5035876;28;20287;-72
2023/09/14 02:40:36;;;;;;;10.55;3.65;;;14.00;99.90;;;;;;5034042;28;20243;-71
2023/09/14 02:43:03;;;;;;;7.90;2.22;;;14.00;99.90;;;;;;5030767;28;20234;-73
2023/09/14 02:45:31;;;;;;;6.90;1.98;;;13.90;99.90;;;;;;5035514;28;20236;-71
2023/09/14 02:47:58;;;;;;;7.10;2.67;;;13.80;99.90;;;;;;5034097;28;20199;-72
2023/09/14 02:50:26;;;;;;;5.05;1.90;;;13.80;99.90;;;;;;5034481;28;20224;-73
2023/09/14 02:52:53;;;;;;;3.35;1.70;;;13.70;99.90;;;;;;5027445;28;20207;-73
2023/09/14 02:55:20;;;;;;;6.55;2.40;;;13.70;99.90;;;;;;5035341;28;20287;-69
2023/09/14 02:57:47;;;;;;;5.55;1.70;;;13.70;99.90;;;;;;5033829;28;20243;-69
2023/09/14 03:00:17;;;;;;;5.07;2.20;;;13.70;99.90;;;;;;5034907;28;20639;-72
2023/09/14 03:02:44;;;;;;;10.77;2.53;;;13.70;99.90;;;;;;5032233;28;20207;-73
2023/09/14 03:05:12;;;;;;;6.80;2.25;;;13.60;99.90;;;;;;5032037;28;20597;-73
2023/09/14 03:07:40;;;;;;;6.88;2.35;;;13.60;99.90;;;;;;5028860;28;20220;-70
2023/09/14 03:10:08;;;;;;;7.78;2.33;;;13.80;99.90;;;;;;5023480;28;20723;-72
2023/09/14 03:12:36;;;;;;;6.45;2.13;;;13.80;99.90;;;;;;5023009;28;20204;-70
2023/09/14 03:15:03;;;;;;;7.63;2.45;;;13.80;99.90;;;;;;5023870;28;20205;-69
2023/09/14 03:17:30;;;;;;;7.55;2.10;;;13.70;99.90;;;;;;5024732;28;20273;-69
2023/09/14 03:19:57;;;;;;;5.88;2.10;;;13.70;99.90;;;;;;5022939;28;20227;-74
2023/09/14 03:22:24;;;;;;;3.85;1.80;;;13.70;99.90;;;;;;5026739;28;20287;-72
2023/09/14 03:24:53;;;;;;;9.13;2.95;;;13.70;99.90;;;;;;5027543;28;20287;-71
2023/09/14 03:27:57;;;;;;;8.45;2.20;;;13.70;99.90;;;;;;5042641;28;20259;-72
2023/09/14 03:30:24;;;;;;;4.00;1.65;;;13.70;99.90;;;;;;5028122;28;20667;-72
2023/09/14 03:32:51;;;;;;;4.45;1.48;;;13.60;99.90;;;;;;5030686;28;20203;-70
2023/09/14 03:35:18;;;;;;;6.60;2.10;;;13.60;99.90;;;;;;5028491;28;20221;-71
2023/09/14 03:38:04;;;;;;;4.63;2.50;;;13.60;99.90;;;;;;5023528;28;20212;-74
2023/09/14 03:40:32;;;;;;;2.80;2.00;;;13.70;99.90;;;;;;5043669;28;20200;-72
2023/09/14 03:42:59;;;;;;;7.05;3.00;;;13.70;99.90;;;;;;5035504;28;20310;-73
2023/09/14 03:45:26;;;;;;;4.97;2.67;;;13.70;99.90;;;;;;5036011;28;20291;-72
2023/09/14 03:47:55;;;;;;;7.35;2.65;;;13.60;99.90;;;;;;5034563;28;20199;-72
2023/09/14 03:50:22;;;;;;;5.10;2.42;;;13.60;99.90;;;;;;5030959;28;20254;-69
2023/09/14 03:52:49;;;;;;;9.93;2.30;;;13.60;99.90;;;;;;5030377;28;20263;-73
2023/09/14 03:55:16;;;;;;;4.30;2.45;;;13.60;99.90;;;;;;5023198;28;20204;-71
2023/09/14 03:57:47;;;;;;;5.47;2.88;;;13.50;99.90;;;;;;5034477;28;20209;-72
2023/09/14 04:00:15;;;;;;;5.00;3.47;;;13.50;99.90;;;;;;5033039;28;20196;-73
2023/09/14 04:02:42;;;;;;;3.75;2.17;;;13.40;99.90;;;;;;5022030;28;20207;-73
2023/09/14 04:05:14;;;;;;;5.70;3.00;;;13.40;99.90;;;;;;5021664;28;20294;-75
2023/09/14 04:07:41;;;;;;;7.85;3.08;;;13.30;99.90;;;;;;5032927;28;20215;-73
2023/09/14 04:10:10;;;;;;;5.03;2.80;;;13.20;99.90;;;;;;5033499;28;20298;-74
2023/09/14 04:12:38;;;;;;;11.85;3.35;;;13.20;99.90;;;;;;5021797;28;20657;-72
2023/09/14 04:15:08;;;;;;;8.60;2.40;;;13.20;99.90;;;;;;5022463;28;20206;-73
2023/09/14 04:17:35;;;;;;;7.53;3.65;;;13.20;99.90;;;;;;5019849;28;20640;-72
2023/09/14 04:20:05;;;;;;;6.63;2.90;;;13.20;99.90;;;;;;5024899;28;20294;-71
2023/09/14 04:22:32;;;;;;;6.25;3.10;;;13.20;99.90;;;;;;5027587;28;20293;-76
2023/09/14 04:25:00;;;;;;;6.10;2.55;;;13.20;99.90;;;;;;5019725;28;20199;-72
2023/09/14 04:27:27;;;;;;;8.88;2.40;;;13.20;99.90;;;;;;5025643;28;20262;-72
2023/09/14 04:29:54;;;;;;;8.82;3.22;;;13.20;99.90;;;;;;5025630;28;20207;-75
2023/09/14 04:32:22;;;;;;;9.43;3.30;;;13.10;99.90;;;;;;5020928;28;20227;-73
2023/09/14 04:34:49;;;;;;;5.28;3.45;;;13.10;99.90;;;;;;5029722;28;20295;-74
2023/09/14 04:37:16;;;;;;;8.85;4.00;;;13.10;99.90;;;;;;5018995;28;20307;-71
2023/09/14 04:39:43;;;;;;;11.93;3.28;;;13.10;99.90;;;;;;5026106;28;20207;-71
2023/09/14 04:42:10;;;;;;;7.18;3.08;;;13.10;99.90;;;;;;5023793;28;20228;-72
2023/09/14 04:44:38;;;;;;;14.48;2.78;;;13.10;99.90;;;;;;5021962;28;20304;-71
2023/09/14 04:47:05;;;;;;;12.57;3.53;;;13.10;99.90;;;;;;5028095;28;20282;-75
2023/09/14 04:49:33;;;;;;;12.95;4.20;;;13.30;99.90;;;;;;5032198;28;20305;-73
2023/09/14 04:52:00;;;;;;;8.55;3.13;;;13.30;99.90;;;;;;5026024;28;20259;-73
2023/09/14 04:54:27;;;;;;;4.28;2.83;;;13.30;99.90;;;;;;5038056;28;20570;-70
2023/09/14 04:56:54;;;;;;;5.07;2.60;;;13.40;99.90;;;;;;5031166;28;20697;-71
2023/09/14 04:59:24;;;;;;;4.53;2.75;;;13.60;99.90;;;;;;5032663;28;20290;-74
2023/09/14 05:01:51;;;;;;;9.27;3.08;;;13.80;99.90;;;;;;5033106;28;20200;-72
2023/09/14 05:04:18;;;;;;;5.30;2.75;;;14.00;99.90;;;;;;5032770;28;20218;-75
2023/09/14 05:06:47;;;;;;;6.30;2.72;;;14.20;99.90;;;;;;5032971;28;20681;-75
2023/09/14 05:09:14;;;;;;;4.63;2.40;;;14.30;99.90;;;;;;5027391;28;20628;-72
2023/09/14 05:11:41;;;;;;;4.05;2.33;;;14.50;99.90;;;;;;5033046;28;20215;-72
2023/09/14 05:14:08;;;;;;;5.95;2.97;;;14.50;99.90;;;;;;5033185;28;20559;-71
2023/09/14 05:16:35;;;;;;;10.05;2.65;;;14.50;99.90;;;;;;5032850;28;20310;-73
2023/09/14 05:19:02;;;;;;;7.85;3.60;;;14.50;99.90;;;;;;5032493;28;20223;-74
2023/09/14 05:21:29;;;;;;;10.23;3.05;;;14.70;99.90;;;;;;5032711;28;20543;-75
2023/09/14 05:23:57;;;;;;;6.55;3.03;;;14.80;99.90;;;;;;5031934;28;20636;-73
2023/09/14 05:26:24;;;;;;;5.50;2.78;;;14.60;99.90;;;;;;5023351;28;20711;-70
2023/09/14 05:28:51;;;;;;;8.02;2.55;;;14.70;99.90;;;;;;5022742;28;20201;-72
2023/09/14 05:31:18;;;;;;;4.45;3.03;;;14.60;99.90;;;;;;5022559;28;20980;-73
2023/09/14 05:33:45;;;;;;;6.15;2.53;;;14.60;99.90;;;;;;5025048;28;20232;-73
2023/09/14 05:36:12;;;;;;;7.68;2.97;;;14.60;99.90;;;;;;5023709;28;20223;-69
2023/09/14 05:38:39;;;;;;;7.38;3.47;;;14.60;99.90;;;;;;5023261;28;20295;-69
2023/09/14 05:41:07;;;;;;;8.23;3.60;;;14.60;99.90;;;;;;5029252;28;20605;-69
2023/09/14 05:43:35;;;;;;;9.00;3.42;;;14.50;99.90;;;;;;5021527;28;20204;-73
2023/09/14 05:46:02;;;;;;;10.73;2.75;;;14.70;99.90;;;;;;5021419;28;20239;-73
2023/09/14 05:48:29;;;;;;;6.03;3.17;;;14.80;99.90;;;;;;5029198;28;20200;-73
2023/09/14 05:50:56;;;;;;;7.18;2.35;;;14.90;99.90;;;;;;5028916;28;20231;-72
2023/09/14 05:53:23;;;;;;;8.32;3.85;;;15.00;99.90;;;;;;5029263;28;20212;-71
2023/09/14 05:55:49;;;;;;;4.80;2.63;;;14.80;99.90;;;;;;5019817;28;20311;-74
2023/09/14 05:58:18;;;;;;;4.65;3.00;;;14.90;99.90;;;;;;5025459;28;20744;-71
2023/09/14 06:00:45;;;;;;;7.68;3.67;;;14.90;99.90;;;;;;5019210;28;20224;-73
2023/09/14 06:03:12;;;;;;;5.63;2.10;;;15.00;99.90;;;;;;5020337;28;20213;-72
2023/09/14 06:05:39;;;;;;;4.55;2.78;;;15.00;99.90;;;;;;5026361;28;20224;-71
2023/09/14 06:08:06;;;;;;;9.40;3.83;;;15.10;99.90;;;;;;5028898;28;20287;-72
2023/09/14 06:10:33;;;;;;;4.90;2.70;;;15.20;99.90;;;;;;5025503;28;20297;-73
2023/09/14 06:13:00;;;;;;;9.73;3.50;;;15.20;99.90;;;;;;5020467;28;20590;-73
2023/09/14 06:15:28;;;;;;;4.10;3.20;;;15.40;99.90;;;;;;5027485;28;20283;-75
2023/09/14 06:18:05;;;;;;;12.43;3.13;;;15.60;99.90;;;;;;5021688;28;20228;-73
2023/09/14 06:20:32;;;;;;;11.48;3.72;;;15.80;99.90;;;;;;5032437;28;20290;-73
2023/09/14 06:23:28;;;;;;;5.85;2.60;;;15.90;99.90;;;;;;5029557;28;20283;-74
2023/09/14 06:25:55;;;;;;;4.20;2.47;;;16.10;99.90;;;;;;5030268;28;20283;-71
2023/09/14 06:28:23;;;;;;;4.70;3.30;;;16.40;99.90;;;;;;5030070;28;20292;-72
2023/09/14 06:30:51;;;;;;;9.07;3.20;;;16.40;99.90;;;;;;5024116;28;20233;-73
2023/09/14 06:33:18;;;;;;;5.37;2.90;;;16.50;99.90;;;;;;5019645;28;20208;-74
2023/09/14 06:35:45;;;;;;;4.57;2.63;;;16.60;99.90;;;;;;5024046;28;20540;-72
2023/09/14 06:38:12;;;;;;;8.97;3.23;;;16.50;99.90;;;;;;5032760;28;20264;-72
2023/09/14 06:40:40;;;;;;;10.90;3.13;;;16.40;99.90;;;;;;5031362;28;20473;-73
2023/09/14 06:43:07;;;;;;;9.45;3.08;;;16.50;99.90;;;;;;5031647;28;20240;-72
2023/09/14 06:45:34;;;;;;;10.25;2.72;;;16.70;99.90;;;;;;5030953;28;20248;-73
2023/09/14 06:48:02;;;;;;;9.20;4.07;;;16.90;99.90;;;;;;5030826;28;20205;-70
2023/09/14 06:50:29;;;;;;;8.13;3.00;;;16.80;99.90;;;;;;5031323;28;20737;-72
2023/09/14 06:52:56;;;;;;;6.50;3.22;;;16.70;99.90;;;;;;5021142;28;20230;-71
2023/09/14 06:55:23;;;;;;;8.00;3.28;;;16.50;99.90;;;;;;5031842;28;20232;-70
2023/09/14 06:57:50;;;;;;;5.45;3.08;;;16.60;99.90;;;;;;5031292;28;20245;-71
2023/09/14 07:00:21;;;;;;;7.63;2.60;;;16.70;99.90;;;;;;5031189;28;20295;-70
2023/09/14 07:02:48;;;;;;;9.60;3.00;;;16.80;99.90;;;;;;5031759;28;20529;-72
2023/09/14 07:05:17;;;;;;;7.65;3.38;;;16.90;99.90;;;;;;5032713;28;20219;-73
2023/09/14 07:07:44;;;;;;;7.30;2.72;;;16.90;99.90;;;;;;5035810;28;20206;-71
2023/09/14 07:10:11;;;;;;;6.03;2.70;;;17.00;99.90;;;;;;5025128;28;20225;-71
2023/09/14 07:12:38;;;;;;;7.87;2.90;;;17.00;99.90;;;;;;5029788;28;20556;-74
2023/09/14 07:15:06;;;;;;;9.13;2.93;;;17.10;99.90;;;;;;5033859;28;20534;-71
2023/09/14 07:17:33;;;;;;;6.47;2.97;;;17.10;99.90;;;;;;5037546;28;20499;-71
2023/09/14 07:20:00;;;;;;;5.87;2.70;;;17.20;99.90;;;;;;5036315;28;20443;-72
2023/09/14 07:22:28;;;;;;;6.40;3.90;;;17.20;99.90;;;;;;5042991;28;20442;-72
2023/09/14 07:24:55;;;;;;;10.63;3.73;;;17.20;99.90;;;;;;5032458;28;20499;-70
2023/09/14 07:27:22;;;;;;;6.77;2.90;;;17.30;99.90;;;;;;5034709;28;20556;-75
2023/09/14 07:29:50;;;;;;;6.20;2.80;;;17.50;99.90;;;;;;5034103;28;20452;-73
2023/09/14 07:32:18;;;;;;;6.67;3.40;;;17.50;99.90;;;;;;5031849;28;20501;-70
2023/09/14 07:34:46;;;;;;;8.97;2.67;;;17.50;99.90;;;;;;5032855;28;20449;-74
2023/09/14 07:37:16;;;;;;;11.23;3.30;;;17.50;99.90;;;;;;5027806;28;20502;-70
2023/09/14 07:39:46;;;;;;;10.07;3.70;;;17.50;99.90;;;;;;5032541;28;20499;-72
2023/09/14 07:42:13;;;;;;;6.65;3.25;;;17.50;99.90;;;;;;5033312;28;20451;-73
2023/09/14 07:44:40;;;;;;;6.30;2.50;;;17.70;99.90;;;;;;5033929;28;20233;-71
2023/09/14 07:47:07;;;;;;;9.00;2.55;;;17.90;99.90;;;;;;5028835;28;20569;-71
2023/09/14 07:49:33;;;;;;;7.60;2.80;;;17.80;99.90;;;;;;5033805;28;20222;-74
2023/09/14 07:52:01;;;;;;;6.10;3.10;;;18.00;99.90;;;;;;5031916;28;20585;-71
2023/09/14 07:54:29;;;;;;;9.97;3.33;;;18.20;99.90;;;;;;5031419;28;21135;-72
2023/09/14 07:56:57;;;;;;;7.60;2.50;;;18.30;99.90;;;;;;5033877;28;20451;-72
2023/09/14 07:59:24;;;;;;;5.20;2.40;;;18.50;99.90;;;;;;5031975;28;20439;-71
2023/09/14 08:01:51;;;;;;;9.00;2.70;;;18.60;99.90;;;;;;5033640;28;20473;-74
2023/09/14 08:04:18;;;;;;;8.67;2.60;;;18.60;99.90;;;;;;5034050;28;20525;-71
2023/09/14 08:06:46;;;;;;;10.40;3.13;;;18.90;99.90;;;;;;5033622;28;20456;-69
2023/09/14 08:09:13;;;;;;;7.13;2.67;;;18.80;99.90;;;;;;5025098;28;20876;-73
2023/09/14 08:11:41;;;;;;;3.57;2.17;;;18.80;99.90;;;;;;5030574;28;20919;-73
2023/09/14 08:14:09;;;;;;;4.23;2.40;;;18.80;99.90;;;;;;5042072;28;20471;-72
2023/09/14 08:16:36;;;;;;;7.00;2.40;;;18.80;99.90;;;;;;5027841;28;20481;-70
2023/09/14 08:19:03;;;;;;;7.03;2.90;;;19.00;99.90;;;;;;5028119;28;20459;-70
2023/09/14 08:21:31;;;;;;;4.07;2.00;;;19.10;99.90;;;;;;5023971;28;20493;-71
2023/09/14 08:23:57;;;;;;;6.87;2.70;;;19.50;99.90;;;;;;5034606;28;20523;-71
2023/09/14 08:26:24;;;;;;;4.87;2.37;;;20.00;99.90;;;;;;5033745;28;20912;-72
2023/09/14 08:28:51;;;;;;;5.40;3.03;;;20.10;99.90;;;;;;5022115;28;20618;-73
2023/09/14 08:31:21;;;;;;;3.87;1.77;;;20.10;99.90;;;;;;5033458;28;20442;-71
2023/09/14 08:33:50;;;;;;;4.10;2.13;;;20.50;99.90;;;;;;5035268;28;20485;-72
2023/09/14 08:36:17;;;;;;;9.03;2.40;;;20.70;99.90;;;;;;5015395;28;20467;-70
2023/09/14 08:38:44;;;;;;;4.13;1.87;;;21.40;99.80;;;;;;5036418;28;20478;-71
2023/09/14 08:41:17;;;;;;;13.87;2.13;;;22.00;97.00;;;;;;5027753;28;20518;-71
2023/09/14 08:43:46;;;;;;;10.83;2.00;;;22.30;95.40;;;;;;5029576;28;20522;-71
2023/09/14 08:46:16;;;;;;;4.90;2.23;;;22.10;93.70;;;;;;5039843;28;20458;-70
2023/09/14 08:48:51;;;;;;;6.40;2.43;;;22.30;93.40;;;;;;5039209;28;20442;-69
2023/09/14 08:51:20;;;;;;;9.63;2.50;;;22.50;92.80;;;;;;5018344;28;20463;-73
2023/09/14 08:53:50;;;;;;;6.13;2.00;;;22.80;92.30;;;;;;5032938;28;21024;-70
2023/09/14 08:56:17;;;;;;;4.30;1.50;;;24.20;91.50;;;;;;5033492;28;20518;-70
2023/09/14 08:58:45;;;;;;;6.23;3.90;;;24.40;86.80;;;;;;5030825;28;20537;-70
2023/09/14 09:01:14;;;;;;;6.40;2.57;;;24.70;88.20;;;;;;5032690;28;20597;-72
2023/09/14 09:03:41;;;;;;;7.17;2.10;;;24.50;87.90;;;;;;5025403;28;20439;-67
2023/09/14 09:06:10;;;;;;;6.90;1.83;;;24.50;86.90;;;;;;5025418;28;20513;-72
2023/09/14 09:08:38;;;;;;;4.63;1.90;;;24.20;85.80;;;;;;5028292;28;20555;-71
2023/09/14 09:11:14;;;;;;;4.77;2.30;;;24.50;86.00;;;;;;5035133;28;20468;-68
2023/09/14 09:13:45;;;;;;;5.73;2.03;;;25.40;85.00;;;;;;5025075;28;20478;-69
2023/09/14 09:16:15;;;;;;;6.20;2.50;;;25.60;82.50;;;;;;5036691;28;20828;-69
2023/09/14 09:19:02;;;;;;;4.20;1.97;;;26.00;80.30;;;;;;5031507;28;20508;-70
2023/09/14 09:21:32;;;;;;;3.97;1.63;;;25.80;80.30;;;;;;5027100;28;20450;-72
2023/09/14 09:24:00;;;;;;;3.97;1.70;;;25.80;78.40;;;;;;5035950;28;20816;-73
2023/09/14 09:26:33;;;;;;;6.70;2.57;;;25.60;78.70;;;;;;5034449;28;20548;-70
2023/09/14 09:29:00;;;;;;;3.50;2.00;;;25.40;79.00;;;;;;5031156;28;20446;-71
2023/09/14 09:31:41;;;;;;;2.70;1.47;;;25.50;79.60;;;;;;5030259;28;20445;-70
2023/09/14 09:34:09;;;;;;;5.90;1.60;;;26.40;77.40;;;;;;5026150;28;20442;-72
2023/09/14 09:36:38;;;;;;;6.80;2.70;;;26.40;75.30;;;;;;5030601;28;20463;-73
2023/09/14 09:39:06;;;;;;;3.90;1.77;;;25.70;75.20;;;;;;5036585;28;20435;-69
2023/09/14 09:41:34;;;;;;;4.87;2.03;;;25.00;76.70;;;;;;5021025;28;20451;-71
2023/09/14 09:44:07;;;;;;;5.23;2.80;;;24.70;75.30;;;;;;5020129;28;20455;-69
2023/09/14 09:46:35;;;;;;;2.73;1.70;;;24.30;76.10;;;;;;5030066;28;20506;-73
2023/09/14 09:49:03;;;;;;;3.33;1.80;;;23.60;76.20;;;;;;5022751;28;20436;-71
2023/09/14 09:51:30;;;;;;;3.10;1.93;;;23.00;78.90;;;;;;5030944;28;20446;-72
2023/09/14 09:54:06;;;;;;;5.43;2.13;;;22.60;78.30;;;;;;5026913;28;20575;-71
2023/09/14 09:56:35;;;;;;;3.00;2.57;;;22.50;81.00;;;;;;5031821;28;20475;-74
2023/09/14 09:59:09;;;;;;;3.40;2.30;;;22.40;83.00;;;;;;5030194;28;20450;-71
2023/09/14 10:01:36;;;;;;;4.20;1.80;;;22.30;82.90;;;;;;5032361;28;20458;-70
2023/09/14 10:04:08;;;;;;;4.27;2.10;;;22.20;81.50;;;;;;5021388;28;20482;-71
2023/09/14 10:06:36;;;;;;;6.47;2.90;;;22.00;83.80;;;;;;5027805;28;20549;-69
2023/09/14 10:09:08;;;;;;;3.53;1.57;;;21.90;82.90;;;;;;5028969;28;20473;-70
2023/09/14 10:11:36;;;;;;;4.87;2.20;;;21.70;84.50;;;;;;5031645;28;20481;-71
2023/09/14 10:14:04;;;;;;;6.00;2.47;;;21.70;84.70;;;;;;5022929;28;20580;-70
2023/09/14 10:16:36;;;;;;;5.07;2.80;;;21.70;85.20;;;;;;5024222;28;20562;-71
2023/09/14 10:19:05;;;;;;;6.40;1.83;;;21.70;85.10;;;;;;5028037;28;20510;-71
2023/09/14 10:21:33;;;;;;;6.57;5.00;;;21.80;82.90;;;;;;5032019;28;20533;-72
2023/09/14 10:24:03;;;;;;;3.90;2.17;;;21.80;84.10;;;;;;5019208;28;20450;-73
2023/09/14 10:26:32;;;;;;;3.80;2.43;;;21.90;85.10;;;;;;5031562;28;20546;-72
2023/09/14 10:28:59;;;;;;;5.20;2.13;;;22.00;84.90;;;;;;5030332;28;20450;-72
2023/09/14 10:31:29;;;;;;;4.90;1.93;;;21.90;85.20;;;;;;5027204;28;20443;-70
2023/09/14 10:33:59;;;;;;;2.97;2.20;;;21.90;83.90;;;;;;5031888;28;20478;-73
2023/09/14 10:36:29;;;;;;;4.97;2.20;;;21.80;84.30;;;;;;5030976;28;20477;-73
2023/09/14 10:38:58;;;;;;;3.60;1.87;;;21.70;83.20;;;;;;5022866;28;20447;-74
2023/09/14 10:41:25;;;;;;;6.80;2.77;;;21.70;82.60;;;;;;5033189;28;20549;-74
2023/09/14 10:43:53;;;;;;;5.20;2.40;;;21.80;85.00;;;;;;5035730;28;20498;-70
2023/09/14 10:46:25;;;;;;;4.50;2.30;;;21.90;84.90;;;;;;5035428;28;20928;-72
2023/09/14 10:48:53;;;;;;;7.03;2.17;;;21.70;83.50;;;;;;5032464;28;20474;-70
2023/09/14 10:51:22;;;;;;;8.30;2.67;;;21.80;85.40;;;;;;5030036;28;20460;-72
2023/09/14 10:53:50;;;;;;;9.33;2.10;;;21.70;84.60;;;;;;5028495;28;20493;-74
2023/09/14 10:56:21;;;;;;;5.50;1.80;;;21.30;83.90;;;;;;5035797;28;20921;-74
2023/09/14 10:58:51;;;;;;;2.70;1.17;;;21.30;85.60;;;;;;5028409;28;20446;-73
2023/09/14 11:01:25;;;;;;;5.60;2.07;;;21.30;87.60;;;;;;5029479;28;20921;-71
2023/09/14 11:04:13;;;;;;;4.33;2.50;;;21.30;86.60;;;;;;5029194;28;20842;-71
2023/09/14 11:06:44;;;;;;;4.57;2.70;;;21.10;86.30;;;;;;5030385;28;20487;-73
2023/09/14 11:09:13;;;;;;;8.87;2.60;;;21.00;87.90;;;;;;5025060;28;20539;-72
2023/09/14 11:11:41;;;;;;;4.50;1.67;;;20.90;85.50;;;;;;5028580;28;20448;-72
2023/09/14 11:14:10;;;;;;;3.60;2.27;;;20.60;83.90;;;;;;5034291;28;20921;-71
2023/09/14 11:16:47;;;;;;;4.20;2.20;;;20.70;85.90;;;;;;5030679;28;20575;-71
2023/09/14 11:19:45;;;;;;;3.27;1.77;;;20.70;86.30;;;;;;5027927;28;20453;-73
2023/09/14 11:22:16;;;;;;;5.23;2.03;;;20.70;86.50;;;;;;4986974;28;20461;-70
2023/09/14 11:24:43;;;;;;;5.43;2.43;;;20.80;87.70;;;;;;5027511;28;20933;-71
2023/09/14 11:27:18;;;;;;;3.17;1.67;;;21.00;87.10;;;;;;5032916;28;20552;-71
2023/09/14 11:29:46;;;;;;;3.70;2.40;;;21.10;87.40;;;;;;5032220;28;20869;-71
2023/09/14 11:32:22;;;;;;;6.20;2.00;;;21.20;85.00;;;;;;5028300;28;20472;-70
2023/09/14 11:34:49;;;;;;;6.20;2.20;;;21.30;84.30;;;;;;5034230;28;20527;-71
2023/09/14 11:37:16;;;;;;;2.60;1.87;;;21.30;84.40;;;;;;5025446;28;21016;-71
2023/09/14 11:39:52;;;;;;;4.37;1.90;;;21.20;83.50;;;;;;5030627;28;20450;-71
2023/09/14 11:42:19;;;;;;;4.03;1.73;;;21.50;83.40;;;;;;5012612;28;20450;-71
2023/09/14 11:44:48;;;;;;;6.00;3.00;;;21.50;85.10;;;;;;5028600;28;20452;-70
2023/09/14 11:47:17;;;;;;;4.00;1.97;;;21.60;85.90;;;;;;5031260;28;20996;-73
2023/09/14 11:49:47;;;;;;;3.10;2.17;;;21.80;85.00;;;;;;5039499;28;20455;-69
2023/09/14 11:52:20;;;;;;;3.70;2.37;;;21.90;83.00;;;;;;5039067;28;20447;-69
2023/09/14 11:54:49;;;;;;;4.73;2.00;;;22.00;83.10;;;;;;5034869;28;20840;-71
2023/09/14 11:57:28;;;;;;;3.60;2.20;;;22.00;82.60;;;;;;5033931;28;20478;-67
2023/09/14 11:59:55;;;;;;;4.80;2.10;;;22.10;81.40;;;;;;5034241;28;20485;-71
2023/09/14 12:02:25;;;;;;;4.50;2.70;;;21.90;81.40;;;;;;5035439;28;20526;-70
2023/09/14 12:04:53;;;;;;;4.80;2.10;;;21.80;81.90;;;;;;5033467;28;20987;-69
2023/09/14 12:07:29;;;;;;;3.73;2.10;;;21.80;81.50;;;;;;5033027;28;20478;-68
2023/09/14 12:09:56;;;;;;;4.40;2.50;;;21.90;81.70;;;;;;5037306;28;20449;-73
2023/09/14 12:12:27;;;;;;;3.77;2.77;;;21.60;82.20;;;;;;5036144;28;20477;-70
2023/09/14 12:14:55;;;;;;;3.83;2.13;;;21.50;82.20;;;;;;5031025;28;20499;-71
2023/09/14 12:17:24;;;;;;;5.27;2.40;;;21.50;82.20;;;;;;5028638;28;20557;-71
2023/09/14 12:19:54;;;;;;;4.50;2.40;;;21.40;82.10;;;;;;5031563;28;20972;-73
2023/09/14 12:22:22;;;;;;;5.63;2.47;;;21.50;83.00;;;;;;5030488;28;20476;-73
2023/09/14 12:24:50;;;;;;;4.40;2.50;;;21.80;81.70;;;;;;5033628;28;20803;-71
2023/09/14 12:27:18;;;;;;;5.37;2.57;;;21.80;84.60;;;;;;5027402;28;20470;-70
2023/09/14 12:29:47;;;;;;;3.83;2.80;;;21.70;82.40;;;;;;5028188;28;20944;-73
2023/09/14 12:32:14;;;;;;;6.80;2.37;;;21.90;83.50;;;;;;5032876;28;20478;-71
2023/09/14 12:34:42;;;;;;;4.90;3.37;;;21.90;83.90;;;;;;5029612;28;20482;-70
2023/09/14 12:37:10;;;;;;;4.23;2.63;;;21.90;83.70;;;;;;5030438;28;20469;-69
2023/09/14 12:39:39;;;;;;;3.70;2.13;;;21.70;81.70;;;;;;5033202;28;20504;-72
2023/09/14 12:42:09;;;;;;;4.33;2.27;;;21.90;83.70;;;;;;5024440;28;20444;-71
2023/09/14 12:44:37;;;;;;;3.03;2.40;;;21.80;81.80;;;;;;5033711;28;20530;-70
2023/09/14 12:47:06;;;;;;;3.53;3.00;;;21.90;83.10;;;;;;5023166;28;20586;-73
2023/09/14 12:49:35;;;;;;;3.33;2.30;;;22.10;84.00;;;;;;5028622;28;20455;-71
2023/09/14 12:52:06;;;;;;;4.83;2.20;;;22.20;81.90;;;;;;5021978;28;20938;-70
2023/09/14 12:54:50;;;;;;;3.40;2.10;;;22.20;80.90;;;;;;5031216;28;20489;-72